Time;durP1;ratioP1;P1;durP2;ratioP2;P2;SDS_P1;SDS_P2;PMS_P1;PMS_P2;Temp;Humidity;BMP_temperature;BMP_pressure;BME280_temperature;BME280_humidity;BME280_pressure;Samples;Min_cycle;Max_cycle;Signal;HPM_P1;HPM_P2
2024/01/26 00:01:32;;;;;;;;;;;8.30;99.90;;;;;;4964495;28;19937;-67
2024/01/26 00:03:58;;;;;;;;;;;8.30;99.90;;;;;;4934030;28;19945;-67
2024/01/26 00:06:24;;;;;;;;;;;8.30;99.90;;;;;;4961573;28;20373;-67
2024/01/26 00:08:49;;;;;;;;;;;8.30;99.90;;;;;;4960129;28;19926;-67
2024/01/26 00:11:15;;;;;;;;;;;8.40;99.90;;;;;;4960522;28;20332;-67
2024/01/26 00:13:41;;;;;;;;;;;8.40;99.90;;;;;;4961076;28;20044;-68
2024/01/26 00:16:07;;;;;;;;;;;8.40;99.90;;;;;;4962959;28;19925;-67
2024/01/26 00:18:33;;;;;;;;;;;8.40;99.90;;;;;;4957682;28;20416;-68
2024/01/26 00:20:58;;;;;;;;;;;8.40;99.90;;;;;;4963126;28;19937;-68
2024/01/26 00:23:24;;;;;;;;;;;8.50;99.90;;;;;;4962604;28;20734;-68
2024/01/26 00:25:50;;;;;;;;;;;8.50;99.90;;;;;;4964417;28;19992;-68
2024/01/26 00:28:15;;;;;;;;;;;8.50;99.90;;;;;;4948414;28;20000;-68
2024/01/26 00:30:41;;;;;;;;;;;8.50;99.90;;;;;;4959125;28;19922;-67
2024/01/26 00:33:07;;;;;;;;;;;8.50;99.90;;;;;;4959075;28;19926;-67
2024/01/26 00:35:32;;;;;;;;;;;8.60;99.90;;;;;;4963287;28;19969;-67
2024/01/26 00:37:58;;;;;;;;;;;8.60;99.90;;;;;;4956952;28;19926;-67
2024/01/26 00:40:23;;;;;;;;;;;8.60;99.90;;;;;;4966221;28;19937;-67
2024/01/26 00:42:49;;;;;;;;;;;8.60;99.90;;;;;;4968192;28;20309;-67
2024/01/26 00:45:15;;;;;;;;;;;8.60;99.90;;;;;;4984789;28;20893;-68
2024/01/26 00:47:40;;;;;;;;;;;8.60;99.90;;;;;;4967984;28;19976;-67
2024/01/26 00:50:06;;;;;;;;;;;8.60;99.90;;;;;;4967330;28;19922;-68
2024/01/26 00:52:32;;;;;;;;;;;8.60;99.90;;;;;;4971800;28;20017;-67
2024/01/26 00:54:58;;;;;;;;;;;8.70;99.90;;;;;;4968742;28;20045;-68
2024/01/26 00:57:23;;;;;;;;;;;8.70;99.90;;;;;;4969257;28;20288;-68
2024/01/26 00:59:49;;;;;;;;;;;8.70;99.90;;;;;;4968482;28;19930;-67
2024/01/26 01:02:15;;;;;;;;;;;8.70;99.90;;;;;;4968328;28;19930;-67
2024/01/26 01:04:40;;;;;;;;;;;8.70;99.90;;;;;;4953907;28;19926;-68
2024/01/26 01:07:06;;;;;;;;;;;8.70;99.90;;;;;;4952036;28;19948;-67
2024/01/26 01:09:31;;;;;;;;;;;8.70;99.90;;;;;;4968930;28;20046;-67
2024/01/26 01:11:57;;;;;;;;;;;8.70;99.90;;;;;;4952654;28;19926;-67
2024/01/26 01:14:23;;;;;;;;;;;8.70;99.90;;;;;;4967336;28;19937;-67
2024/01/26 01:16:50;;;;;;;;;;;8.80;99.90;;;;;;4961969;28;19932;-68
2024/01/26 01:19:16;;;;;;;;;;;8.80;99.90;;;;;;4955179;28;20288;-68
2024/01/26 01:21:41;;;;;;;;;;;8.80;99.90;;;;;;4967889;28;20187;-68
2024/01/26 01:24:07;;;;;;;;;;;8.80;99.90;;;;;;4985194;28;19929;-67
2024/01/26 01:26:32;;;;;;;;;;;8.80;99.90;;;;;;4951646;28;19930;-67
2024/01/26 01:28:58;;;;;;;;;;;8.80;99.90;;;;;;4954440;28;19926;-67
2024/01/26 01:31:24;;;;;;;;;;;8.80;99.90;;;;;;4968549;28;19926;-68
2024/01/26 01:33:50;;;;;;;;;;;8.80;99.90;;;;;;4969752;28;19933;-67
2024/01/26 01:36:15;;;;;;;;;;;8.80;99.90;;;;;;4947322;28;19996;-68
2024/01/26 01:38:41;;;;;;;;;;;8.80;99.90;;;;;;4963962;28;20442;-67
2024/01/26 01:41:06;;;;;;;;;;;8.90;99.90;;;;;;4955630;28;19930;-67
2024/01/26 01:43:32;;;;;;;;;;;8.90;99.90;;;;;;4951523;28;20293;-68
2024/01/26 01:45:58;;;;;;;;;;;8.90;99.90;;;;;;4984988;28;20041;-67
2024/01/26 01:48:24;;;;;;;;;;;8.90;99.90;;;;;;4967746;28;19926;-67
2024/01/26 01:50:49;;;;;;;;;;;8.90;99.90;;;;;;4968364;28;20353;-68
2024/01/26 01:53:15;;;;;;;;;;;8.90;99.90;;;;;;4966210;28;20407;-67
2024/01/26 01:55:41;;;;;;;;;;;8.90;99.90;;;;;;4965865;28;19926;-67
2024/01/26 01:58:08;;;;;;;;;;;9.00;99.90;;;;;;4963230;28;19922;-67
2024/01/26 02:00:33;;;;;;;;;;;9.00;99.90;;;;;;4964586;28;19942;-67
2024/01/26 02:02:59;;;;;;;;;;;9.00;99.90;;;;;;4963501;28;19965;-67
2024/01/26 02:05:25;;;;;;;;;;;9.00;99.90;;;;;;4964789;28;20514;-68
2024/01/26 02:07:51;;;;;;;;;;;9.00;99.90;;;;;;4964402;28;19983;-67
2024/01/26 02:10:17;;;;;;;;;;;9.00;99.90;;;;;;4961915;28;19926;-67
2024/01/26 02:12:42;;;;;;;;;;;9.10;99.90;;;;;;4965388;28;19933;-67
2024/01/26 02:15:08;;;;;;;;;;;9.10;99.90;;;;;;4978921;28;19937;-67
2024/01/26 02:17:35;;;;;;;;;;;9.10;99.90;;;;;;4963879;28;19922;-67
2024/01/26 02:20:03;;;;;;;;;;;9.10;99.90;;;;;;4942634;28;19960;-67
2024/01/26 02:22:29;;;;;;;;;;;9.10;99.90;;;;;;5237121;22;19935;-68
2024/01/26 02:24:55;;;;;;;;;;;9.10;99.90;;;;;;4953054;28;19930;-69
2024/01/26 02:27:21;;;;;;;;;;;9.10;99.90;;;;;;4968295;28;19977;-69
2024/01/26 02:29:47;;;;;;;;;;;9.10;99.90;;;;;;4969538;28;19930;-69
2024/01/26 02:32:13;;;;;;;;;;;9.10;99.90;;;;;;4965949;28;21251;-69
2024/01/26 02:34:38;;;;;;;;;;;9.10;99.90;;;;;;4971085;28;19933;-69
2024/01/26 02:37:04;;;;;;;;;;;9.10;99.90;;;;;;4963799;28;19921;-68
2024/01/26 02:39:30;;;;;;;;;;;9.10;99.90;;;;;;4969181;28;19926;-68
2024/01/26 02:41:55;;;;;;;;;;;9.20;99.90;;;;;;4953269;28;19929;-68
2024/01/26 02:44:22;;;;;;;;;;;9.20;99.90;;;;;;4969679;28;19938;-68
2024/01/26 02:46:47;;;;;;;;;;;9.20;99.90;;;;;;4969567;28;19937;-68
2024/01/26 02:49:13;;;;;;;;;;;9.20;99.90;;;;;;4965550;28;19976;-69
2024/01/26 02:51:38;;;;;;;;;;;9.20;99.90;;;;;;4963858;28;19922;-69
2024/01/26 02:54:04;;;;;;;;;;;9.20;99.90;;;;;;4966772;28;20446;-69
2024/01/26 02:56:30;;;;;;;;;;;9.20;99.90;;;;;;4966675;28;20016;-69
2024/01/26 02:58:55;;;;;;;;;;;9.30;99.90;;;;;;4967884;28;19922;-69
2024/01/26 03:01:21;;;;;;;;;;;9.30;99.90;;;;;;4983153;28;19930;-69
2024/01/26 03:03:46;;;;;;;;;;;9.20;99.90;;;;;;4963892;28;19925;-69
2024/01/26 03:06:12;;;;;;;;;;;9.30;99.90;;;;;;4961649;28;20482;-69
2024/01/26 03:08:38;;;;;;;;;;;9.30;99.90;;;;;;4968108;28;19929;-69
2024/01/26 03:11:05;;;;;;;;;;;9.30;99.90;;;;;;4967480;28;19968;-69
2024/01/26 03:13:30;;;;;;;;;;;9.30;99.90;;;;;;4967309;28;19922;-69
2024/01/26 03:15:56;;;;;;;;;;;9.30;99.90;;;;;;4967019;28;20544;-69
2024/01/26 03:18:21;;;;;;;;;;;9.30;99.90;;;;;;4983895;28;20394;-69
2024/01/26 03:20:47;;;;;;;;;;;9.30;99.90;;;;;;4966011;28;20323;-69
2024/01/26 03:23:13;;;;;;;;;;;9.30;99.90;;;;;;4965207;28;20553;-69
2024/01/26 03:25:39;;;;;;;;;;;9.30;99.90;;;;;;4969314;28;20028;-69
2024/01/26 03:28:06;;;;;;;;;;;9.30;99.90;;;;;;4980930;28;19928;-69
2024/01/26 03:30:32;;;;;;;;;;;9.30;99.90;;;;;;4963702;28;20001;-68
2024/01/26 03:32:57;;;;;;;;;;;9.30;99.90;;;;;;4974379;28;20384;-69
2024/01/26 03:35:23;;;;;;;;;;;9.30;99.90;;;;;;4950217;28;19930;-69
2024/01/26 03:37:49;;;;;;;;;;;9.30;99.90;;;;;;4966195;28;20048;-69
2024/01/26 03:40:14;;;;;;;;;;;9.40;99.90;;;;;;4967798;28;22370;-69
2024/01/26 03:42:40;;;;;;;;;;;9.40;99.90;;;;;;4963708;28;19933;-69
2024/01/26 03:45:07;;;;;;;;;;;9.40;99.90;;;;;;4981644;28;19925;-69
2024/01/26 03:47:32;;;;;;;;;;;9.40;99.90;;;;;;4946960;28;19926;-69
2024/01/26 03:49:58;;;;;;;;;;;9.40;99.90;;;;;;4964349;28;19926;-69
2024/01/26 03:52:23;;;;;;;;;;;9.40;99.90;;;;;;4945503;28;19926;-69
2024/01/26 03:54:49;;;;;;;;;;;9.40;99.90;;;;;;4963096;28;20332;-69
2024/01/26 03:57:15;;;;;;;;;;;9.50;99.90;;;;;;4979849;28;19925;-69
2024/01/26 03:59:40;;;;;;;;;;;9.50;99.90;;;;;;4965162;28;20016;-69
2024/01/26 04:02:06;;;;;;;;;;;9.50;99.90;;;;;;4940845;28;19933;-68
2024/01/26 04:04:31;;;;;;;;;;;9.50;99.90;;;;;;4960471;28;20265;-69
2024/01/26 04:06:57;;;;;;;;;;;9.50;99.90;;;;;;4962649;28;19926;-69
2024/01/26 04:09:23;;;;;;;;;;;9.50;99.90;;;;;;4958040;28;19934;-69
2024/01/26 04:11:48;;;;;;;;;;;9.50;99.90;;;;;;4962961;28;19922;-69
2024/01/26 04:14:14;;;;;;;;;;;9.50;99.90;;;;;;4949713;28;19930;-69
2024/01/26 04:16:39;;;;;;;;;;;9.50;99.90;;;;;;4960778;28;19926;-69
2024/01/26 04:19:05;;;;;;;;;;;9.60;99.90;;;;;;4946160;28;20265;-69
2024/01/26 04:21:31;;;;;;;;;;;9.60;99.90;;;;;;4966190;28;20444;-69
2024/01/26 04:23:56;;;;;;;;;;;9.50;99.90;;;;;;4965038;28;19926;-69
2024/01/26 04:26:22;;;;;;;;;;;9.60;99.90;;;;;;4970231;28;21571;-69
2024/01/26 04:28:48;;;;;;;;;;;9.60;99.90;;;;;;4985329;28;19922;-69
2024/01/26 04:31:14;;;;;;;;;;;9.60;99.90;;;;;;4960800;28;19936;-69
2024/01/26 04:33:39;;;;;;;;;;;9.60;99.90;;;;;;4966385;28;19926;-69
2024/01/26 04:36:08;;;;;;;;;;;9.60;99.90;;;;;;4951602;28;20220;-69
2024/01/26 04:38:37;;;;;;;;;;;9.60;99.90;;;;;;4950977;28;20446;-69
2024/01/26 04:41:03;;;;;;;;;;;9.60;99.90;;;;;;4979937;28;20324;-69
2024/01/26 04:43:32;;;;;;;;;;;9.60;99.90;;;;;;4979796;28;19937;-69
2024/01/26 04:45:57;;;;;;;;;;;9.60;99.90;;;;;;4965644;28;19932;-69
2024/01/26 04:48:23;;;;;;;;;;;9.60;99.90;;;;;;4960083;28;19926;-69
2024/01/26 04:50:48;;;;;;;;;;;9.60;99.90;;;;;;4963017;28;19922;-69
2024/01/26 04:53:18;;;;;;;;;;;9.70;99.90;;;;;;4966937;28;20259;-69
2024/01/26 04:55:43;;;;;;;;;;;9.70;99.90;;;;;;4965907;28;19937;-69
2024/01/26 04:58:09;;;;;;;;;;;9.70;99.90;;;;;;4965606;28;20407;-69
2024/01/26 05:00:35;;;;;;;;;;;9.70;99.90;;;;;;4966948;28;19933;-69
2024/01/26 05:03:00;;;;;;;;;;;9.70;99.90;;;;;;4966628;28;20392;-69
2024/01/26 05:05:27;;;;;;;;;;;9.80;99.90;;;;;;4966913;28;19925;-69
2024/01/26 05:07:55;;;;;;;;;;;9.80;99.90;;;;;;4966215;28;20369;-69
2024/01/26 05:10:21;;;;;;;;;;;9.90;99.90;;;;;;4964609;28;19933;-69
2024/01/26 05:12:46;;;;;;;;;;;9.80;99.90;;;;;;4967155;28;20294;-69
2024/01/26 05:15:12;;;;;;;;;;;9.90;99.90;;;;;;4965603;28;20025;-69
2024/01/26 05:17:38;;;;;;;;;;;9.90;99.90;;;;;;4969890;28;19981;-69
2024/01/26 05:20:08;;;;;;;;;;;9.90;99.90;;;;;;4982564;28;20405;-69
2024/01/26 05:22:34;;;;;;;;;;;9.90;99.90;;;;;;4963703;28;20407;-69
2024/01/26 05:25:00;;;;;;;;;;;10.00;99.90;;;;;;4952868;28;20028;-69
2024/01/26 05:27:26;;;;;;;;;;;10.00;99.90;;;;;;4963754;28;20295;-69
2024/01/26 05:29:51;;;;;;;;;;;10.00;99.90;;;;;;4969589;28;20000;-69
2024/01/26 05:32:19;;;;;;;;;;;10.00;99.90;;;;;;4973541;28;19926;-69
2024/01/26 05:34:45;;;;;;;;;;;10.10;99.90;;;;;;4967626;28;19973;-69
2024/01/26 05:37:10;;;;;;;;;;;10.10;99.90;;;;;;4970140;28;20016;-69
2024/01/26 05:39:36;;;;;;;;;;;10.10;99.90;;;;;;4984995;28;19926;-69
2024/01/26 05:42:02;;;;;;;;;;;10.10;99.90;;;;;;4970615;28;19926;-69
2024/01/26 05:44:27;;;;;;;;;;;10.10;99.90;;;;;;4953983;28;19929;-69
2024/01/26 05:46:53;;;;;;;;;;;10.10;99.90;;;;;;4955342;28;19926;-69
2024/01/26 05:49:19;;;;;;;;;;;10.10;99.90;;;;;;4969376;28;20013;-69
2024/01/26 05:51:44;;;;;;;;;;;10.10;99.90;;;;;;4964727;28;19926;-69
2024/01/26 05:54:12;;;;;;;;;;;10.10;99.90;;;;;;4970008;28;19922;-69
2024/01/26 05:56:40;;;;;;;;;;;10.20;99.90;;;;;;4985426;28;20384;-69
2024/01/26 05:59:06;;;;;;;;;;;10.20;99.90;;;;;;4971705;28;20407;-69
2024/01/26 06:01:32;;;;;;;;;;;10.20;99.90;;;;;;4962204;28;19925;-69
2024/01/26 06:03:57;;;;;;;;;;;10.20;99.90;;;;;;4969250;28;19930;-69
2024/01/26 06:06:23;;;;;;;;;;;10.20;99.90;;;;;;4965494;28;19922;-69
2024/01/26 06:08:49;;;;;;;;;;;10.20;99.90;;;;;;4969148;28;19923;-69
2024/01/26 06:11:14;;;;;;;;;;;10.30;99.90;;;;;;4971807;28;19926;-69
2024/01/26 06:13:40;;;;;;;;;;;10.30;99.90;;;;;;4964869;28;19930;-69
2024/01/26 06:16:06;;;;;;;;;;;10.30;99.90;;;;;;4967004;28;19926;-69
2024/01/26 06:18:33;;;;;;;;;;;10.30;99.90;;;;;;4981184;28;19922;-69
2024/01/26 06:20:59;;;;;;;;;;;10.30;99.90;;;;;;4966779;28;20462;-69
2024/01/26 06:23:24;;;;;;;;;;;10.30;99.90;;;;;;4963521;28;19930;-69
2024/01/26 06:25:50;;;;;;;;;;;10.30;99.90;;;;;;4967457;28;19926;-69
2024/01/26 06:28:16;;;;;;;;;;;10.30;99.90;;;;;;4962363;28;19949;-69
2024/01/26 06:30:41;;;;;;;;;;;10.30;99.90;;;;;;4963456;28;19926;-69
2024/01/26 06:33:07;;;;;;;;;;;10.40;99.90;;;;;;4972965;28;19980;-69
2024/01/26 06:35:32;;;;;;;;;;;10.40;99.90;;;;;;4954588;28;19957;-69
2024/01/26 06:37:59;;;;;;;;;;;10.40;99.90;;;;;;4983449;28;19922;-69
2024/01/26 06:40:24;;;;;;;;;;;10.40;99.90;;;;;;4961425;28;19949;-70
2024/01/26 06:42:50;;;;;;;;;;;10.40;99.90;;;;;;4966464;28;19922;-70
2024/01/26 06:45:15;;;;;;;;;;;10.40;99.90;;;;;;4959945;28;19926;-70
2024/01/26 06:47:41;;;;;;;;;;;10.40;99.90;;;;;;4954297;28;20400;-70
2024/01/26 06:50:07;;;;;;;;;;;10.40;99.90;;;;;;4970675;28;19949;-70
2024/01/26 06:52:33;;;;;;;;;;;10.40;99.90;;;;;;4968558;28;19930;-70
2024/01/26 06:54:58;;;;;;;;;;;10.40;99.90;;;;;;4967555;28;19931;-70
2024/01/26 06:57:24;;;;;;;;;;;10.40;99.90;;;;;;4962682;28;20419;-71
2024/01/26 06:59:50;;;;;;;;;;;10.40;99.90;;;;;;4937082;28;19930;-70
2024/01/26 07:02:15;;;;;;;;;;;10.40;99.90;;;;;;4965506;28;19934;-70
2024/01/26 07:04:41;;;;;;;;;;;10.40;99.90;;;;;;4962095;28;21122;-66
2024/01/26 07:07:07;;;;;;;;;;;10.50;99.90;;;;;;4978936;28;19933;-72
2024/01/26 07:09:32;;;;;;;;;;;10.50;99.90;;;;;;4951454;28;19922;-72
2024/01/26 07:11:58;;;;;;;;;;;10.50;99.90;;;;;;4966235;28;20000;-72
2024/01/26 07:14:24;;;;;;;;;;;10.50;99.90;;;;;;4966075;28;19996;-72
2024/01/26 07:16:49;;;;;;;;;;;10.50;99.90;;;;;;4968386;28;19930;-72
2024/01/26 07:19:15;;;;;;;;;;;10.50;99.90;;;;;;4962606;28;20828;-73
2024/01/26 07:21:41;;;;;;;;;;;10.50;99.90;;;;;;4967140;28;20445;-74
2024/01/26 07:24:07;;;;;;;;;;;10.50;99.90;;;;;;4970795;28;19968;-73
2024/01/26 07:26:33;;;;;;;;;;;10.50;99.90;;;;;;4965421;28;19944;-73
2024/01/26 07:28:58;;;;;;;;;;;10.50;99.90;;;;;;4969688;28;19922;-73
2024/01/26 07:31:24;;;;;;;;;;;10.50;99.90;;;;;;4960003;28;19933;-73
2024/01/26 07:33:50;;;;;;;;;;;10.60;99.90;;;;;;4968933;28;20059;-73
2024/01/26 07:36:16;;;;;;;;;;;10.60;99.90;;;;;;4968761;28;19945;-74
2024/01/26 07:38:41;;;;;;;;;;;10.60;99.90;;;;;;4969492;28;19937;-74
2024/01/26 07:41:07;;;;;;;;;;;10.50;99.90;;;;;;4958217;28;20341;-72
2024/01/26 07:43:32;;;;;;;;;;;10.50;99.90;;;;;;4968880;28;20403;-74
2024/01/26 07:45:58;;;;;;;;;;;10.50;99.90;;;;;;4964724;28;20053;-74
2024/01/26 07:48:24;;;;;;;;;;;10.50;99.90;;;;;;4967844;28;20732;-74
2024/01/26 07:50:50;;;;;;;;;;;10.60;99.90;;;;;;4955504;28;20399;-74
2024/01/26 07:53:15;;;;;;;;;;;10.60;99.90;;;;;;4975842;28;20559;-72
2024/01/26 07:55:41;;;;;;;;;;;10.60;99.90;;;;;;4953462;28;19934;-73
2024/01/26 07:58:06;;;;;;;;;;;10.60;99.90;;;;;;4939623;28;19926;-74
2024/01/26 08:00:32;;;;;;;;;;;10.60;99.90;;;;;;4959514;28;19973;-74
2024/01/26 08:02:58;;;;;;;;;;;10.60;99.90;;;;;;4952894;28;20388;-73
2024/01/26 08:05:24;;;;;;;;;;;10.60;99.90;;;;;;4944372;28;20288;-72
2024/01/26 08:07:49;;;;;;;;;;;10.60;99.90;;;;;;4953801;28;19925;-71
2024/01/26 08:10:15;;;;;;;;;;;10.60;99.90;;;;;;4960786;28;19933;-72
2024/01/26 08:12:40;;;;;;;;;;;10.70;99.90;;;;;;4957666;28;19931;-71
2024/01/26 08:15:06;;;;;;;;;;;10.70;99.90;;;;;;4966883;28;19926;-72
2024/01/26 08:17:32;;;;;;;;;;;10.70;99.90;;;;;;4953468;28;20482;-73
2024/01/26 08:19:58;;;;;;;;;;;10.70;99.90;;;;;;4969935;28;19977;-72
2024/01/26 08:22:27;;;;;;;;;;;10.70;99.90;;;;;;4948816;28;20024;-73
2024/01/26 08:24:52;;;;;;;;;;;10.70;99.90;;;;;;4936268;28;19996;-71
2024/01/26 08:27:18;;;;;;;;;;;10.70;99.90;;;;;;4957768;28;20979;-72
2024/01/26 08:29:44;;;;;;;;;;;10.70;99.90;;;;;;4959192;28;19930;-71
2024/01/26 08:32:09;;;;;;;;;;;10.70;99.90;;;;;;4958609;28;19976;-72
2024/01/26 08:34:36;;;;;;;;;;;10.70;99.90;;;;;;4953916;28;19932;-72
2024/01/26 08:37:03;;;;;;;;;;;10.70;99.90;;;;;;4950561;28;20300;-71
2024/01/26 08:39:29;;;;;;;;;;;10.70;99.90;;;;;;4954883;28;20064;-71
2024/01/26 08:41:55;;;;;;;;;;;10.70;99.90;;;;;;4975534;28;19949;-71
2024/01/26 08:44:21;;;;;;;;;;;10.70;99.90;;;;;;4958335;28;20289;-71
2024/01/26 08:46:47;;;;;;;;;;;10.70;99.90;;;;;;4953032;28;19922;-70
2024/01/26 08:49:12;;;;;;;;;;;10.60;99.90;;;;;;4954013;28;20419;-73
2024/01/26 08:51:38;;;;;;;;;;;10.60;99.90;;;;;;4971642;28;19926;-71
2024/01/26 08:54:03;;;;;;;;;;;10.60;99.90;;;;;;4954005;28;19969;-71
2024/01/26 08:56:30;;;;;;;;;;;10.70;99.90;;;;;;4966220;28;20316;-72
2024/01/26 08:58:55;;;;;;;;;;;10.60;99.90;;;;;;4954434;28;20337;-73
2024/01/26 09:01:23;;;;;;;;;;;10.60;99.90;;;;;;4956541;28;19930;-72
2024/01/26 09:03:48;;;;;;;;;;;10.60;99.90;;;;;;4942303;28;19952;-74
2024/01/26 09:06:14;;;;;;;;;;;10.60;99.90;;;;;;4945683;28;19934;-72
2024/01/26 09:08:40;;;;;;;;;;;10.60;99.90;;;;;;4960424;28;20277;-71
2024/01/26 09:11:05;;;;;;;;;;;10.60;99.90;;;;;;4957456;28;19938;-72
2024/01/26 09:13:31;;;;;;;;;;;10.60;99.90;;;;;;4959410;28;19993;-72
2024/01/26 09:15:56;;;;;;;;;;;10.60;99.90;;;;;;4963867;28;19926;-73
2024/01/26 09:18:22;;;;;;;;;;;10.50;99.90;;;;;;4959181;28;20000;-72
2024/01/26 09:20:49;;;;;;;;;;;10.30;99.90;;;;;;4965218;28;19929;-70
2024/01/26 09:23:15;;;;;;;;;;;10.20;99.90;;;;;;4957779;28;19977;-71
2024/01/26 09:25:41;;;;;;;;;;;10.00;99.90;;;;;;4961127;28;19976;-73
2024/01/26 09:28:07;;;;;;;;;;;9.80;99.90;;;;;;4960539;28;20012;-72
2024/01/26 09:30:33;;;;;;;;;;;9.70;99.90;;;;;;4955511;28;19930;-71
2024/01/26 09:32:58;;;;;;;;;;;9.70;99.90;;;;;;4977290;28;19927;-71
2024/01/26 09:35:24;;;;;;;;;;;9.60;99.90;;;;;;4959648;28;19926;-72
2024/01/26 09:37:49;;;;;;;;;;;9.60;99.90;;;;;;4958615;28;20198;-73
2024/01/26 09:40:15;;;;;;;;;;;9.60;99.90;;;;;;4945202;28;19926;-72
2024/01/26 09:42:41;;;;;;;;;;;9.50;99.90;;;;;;4959942;28;19934;-73
2024/01/26 09:45:11;;;;;;;;;;;9.40;99.90;;;;;;4964036;28;20506;-70
2024/01/26 09:47:39;;;;;;;;;;;9.40;99.90;;;;;;4974539;28;20372;-72
2024/01/26 09:50:05;;;;;;;;;;;9.30;99.90;;;;;;4958645;28;19926;-73
2024/01/26 09:52:31;;;;;;;;;;;9.30;99.90;;;;;;4955690;28;19922;-72
2024/01/26 09:54:58;;;;;;;;;;;9.30;99.90;;;;;;4956077;28;19981;-73
2024/01/26 09:57:24;;;;;;;;;;;9.20;99.90;;;;;;4960669;28;19925;-73
2024/01/26 09:59:53;;;;;;;;;;;9.20;99.90;;;;;;4967957;28;19933;-71
2024/01/26 10:02:21;;;;;;;;;;;9.10;99.90;;;;;;4957833;28;20397;-72
2024/01/26 10:04:47;;;;;;;;;;;9.00;99.90;;;;;;4949720;28;20408;-72
2024/01/26 10:07:12;;;;;;;;;;;9.00;99.90;;;;;;4936894;28;20005;-71
2024/01/26 10:09:38;;;;;;;;;;;9.00;99.90;;;;;;4957278;28;20735;-71
2024/01/26 10:12:04;;;;;;;;;;;8.90;99.90;;;;;;4977498;28;19930;-71
2024/01/26 10:14:30;;;;;;;;;;;8.90;99.90;;;;;;4951609;28;19926;-71
2024/01/26 10:16:56;;;;;;;;;;;8.80;99.90;;;;;;4956027;28;19933;-74
2024/01/26 10:19:24;;;;;;;;;;;8.80;99.90;;;;;;4957564;28;19925;-73
2024/01/26 10:21:50;;;;;;;;;;;8.80;99.90;;;;;;4946998;28;19933;-73
2024/01/26 10:24:17;;;;;;;;;;;8.70;99.90;;;;;;4958573;28;20350;-72
2024/01/26 10:26:43;;;;;;;;;;;8.70;99.90;;;;;;4960480;28;20373;-74
2024/01/26 10:29:10;;;;;;;;;;;8.60;99.90;;;;;;4958405;28;20580;-73
2024/01/26 10:31:37;;;;;;;;;;;8.60;99.90;;;;;;4957935;28;19992;-73
2024/01/26 10:34:02;;;;;;;;;;;8.60;99.90;;;;;;4959965;28;20378;-73
2024/01/26 10:36:28;;;;;;;;;;;8.60;99.90;;;;;;4957034;28;19932;-72
2024/01/26 10:38:54;;;;;;;;;;;8.60;99.90;;;;;;4972479;28;19926;-73
2024/01/26 10:41:21;;;;;;;;;;;8.50;99.90;;;;;;4961200;28;21245;-72
2024/01/26 10:43:51;;;;;;;;;;;8.60;99.90;;;;;;4959472;28;20017;-71
2024/01/26 10:46:17;;;;;;;;;;;8.60;99.90;;;;;;4960320;28;19988;-73
2024/01/26 10:48:43;;;;;;;;;;;8.60;99.90;;;;;;4955902;28;20425;-71
2024/01/26 10:51:09;;;;;;;;;;;8.50;99.90;;;;;;4957355;28;19970;-71
2024/01/26 10:53:35;;;;;;;;;;;8.60;99.90;;;;;;4956263;28;20113;-72
2024/01/26 10:56:04;;;;;;;;;;;8.60;99.90;;;;;;4954474;28;19984;-72
2024/01/26 10:58:29;;;;;;;;;;;8.60;99.90;;;;;;4969716;28;19933;-72
2024/01/26 11:00:57;;;;;;;;;;;8.60;99.90;;;;;;4955070;28;19930;-72
2024/01/26 11:03:23;;;;;;;;;;;8.60;99.90;;;;;;4955329;28;19936;-73
2024/01/26 11:05:50;;;;;;;;;;;8.60;99.90;;;;;;4936590;28;20311;-72
2024/01/26 11:08:24;;;;;;;;;;;8.60;99.90;;;;;;4957322;28;19953;-72
2024/01/26 11:10:51;;;;;;;;;;;8.60;99.90;;;;;;4968698;28;19955;-71
2024/01/26 11:13:16;;;;;;;;;;;8.60;99.90;;;;;;4944178;28;19926;-72
2024/01/26 11:15:43;;;;;;;;;;;8.60;99.90;;;;;;4964128;28;19948;-72
2024/01/26 11:18:19;;;;;;;;;;;8.60;99.90;;;;;;4961971;28;20025;-72
2024/01/26 11:20:48;;;;;;;;;;;8.60;99.90;;;;;;4958800;28;19936;-72
2024/01/26 11:23:14;;;;;;;;;;;8.60;99.90;;;;;;4967229;28;19957;-71
2024/01/26 11:25:41;;;;;;;;;;;8.60;99.90;;;;;;4952861;28;19926;-71
2024/01/26 11:28:07;;;;;;;;;;;8.60;99.90;;;;;;4973221;28;19926;-72
2024/01/26 11:30:34;;;;;;;;;;;8.60;99.90;;;;;;4958927;28;19926;-71
2024/01/26 11:33:00;;;;;;;;;;;8.60;99.90;;;;;;4960193;28;19925;-72
2024/01/26 11:35:26;;;;;;;;;;;8.60;99.90;;;;;;4957228;28;19937;-71
2024/01/26 11:37:53;;;;;;;;;;;8.50;99.90;;;;;;4974061;28;19933;-72
2024/01/26 11:40:23;;;;;;;;;;;8.50;99.90;;;;;;4953397;28;20356;-71
2024/01/26 11:42:49;;;;;;;;;;;8.50;99.90;;;;;;4954855;28;19934;-71
2024/01/26 11:45:31;;;;;;;;;;;8.50;99.90;;;;;;4944822;28;20488;-71
2024/01/26 11:47:56;;;;;;;;;;;8.50;99.90;;;;;;4936536;28;19979;-71
2024/01/26 11:50:22;;;;;;;;;;;8.50;99.90;;;;;;4956793;28;20369;-71
2024/01/26 11:52:48;;;;;;;;;;;8.50;99.90;;;;;;4954838;28;19926;-71
2024/01/26 11:55:13;;;;;;;;;;;8.50;99.90;;;;;;4953705;28;19969;-72
2024/01/26 11:57:39;;;;;;;;;;;8.50;99.90;;;;;;4958461;28;19930;-65
2024/01/26 12:00:09;;;;;;;;;;;8.50;99.90;;;;;;4981221;28;19936;-65
2024/01/26 12:02:35;;;;;;;;;;;8.40;99.90;;;;;;4963415;28;19930;-66
2024/01/26 12:05:01;;;;;;;;;;;8.40;99.90;;;;;;4966501;28;20415;-66
2024/01/26 12:07:27;;;;;;;;;;;8.30;99.90;;;;;;4961963;28;19930;-66
2024/01/26 12:09:52;;;;;;;;;;;8.20;99.90;;;;;;4952711;28;19938;-66
2024/01/26 12:12:18;;;;;;;;;;;8.20;99.90;;;;;;4964814;28;19921;-66
2024/01/26 12:14:44;;;;;;;;;;;8.10;99.90;;;;;;4964086;28;20467;-66
2024/01/26 12:17:10;;;;;;;;;;;8.10;99.90;;;;;;4942213;28;19984;-66
2024/01/26 12:19:37;;;;;;;;;;;8.10;99.90;;;;;;4968594;28;19926;-66
2024/01/26 12:22:05;;;;;;;;;;;8.10;99.90;;;;;;4973066;28;20009;-66
2024/01/26 12:24:32;;;;;;;;;;;8.10;99.90;;;;;;4967982;28;20694;-66
2024/01/26 12:26:58;;;;;;;;;;;8.10;99.90;;;;;;4957920;28;19930;-66
2024/01/26 12:29:24;;;;;;;;;;;8.10;99.90;;;;;;4959514;28;20342;-66
2024/01/26 12:31:49;;;;;;;;;;;8.10;99.90;;;;;;4958452;28;20082;-66
2024/01/26 12:34:15;;;;;;;;;;;8.10;99.90;;;;;;4958488;28;19929;-66
2024/01/26 12:36:41;;;;;;;;;;;8.00;99.90;;;;;;4957149;28;19926;-66
2024/01/26 12:39:07;;;;;;;;;;;7.90;99.90;;;;;;4973426;28;19985;-66
2024/01/26 12:41:33;;;;;;;;;;;7.90;99.90;;;;;;4972477;28;19938;-66
2024/01/26 12:43:59;;;;;;;;;;;7.80;99.90;;;;;;4957340;28;19930;-66
2024/01/26 12:46:26;;;;;;;;;;;7.80;99.90;;;;;;4953632;28;19930;-66
2024/01/26 12:48:51;;;;;;;;;;;7.80;99.90;;;;;;4942599;28;19930;-66
2024/01/26 12:51:18;;;;;;;;;;;7.80;99.90;;;;;;4960840;28;19930;-66
2024/01/26 12:53:44;;;;;;;;;;;7.90;99.90;;;;;;4958519;28;19926;-66
2024/01/26 12:56:10;;;;;;;;;;;7.90;99.90;;;;;;4959205;28;20472;-66
2024/01/26 12:58:36;;;;;;;;;;;7.90;99.90;;;;;;4959040;28;19942;-66
2024/01/26 13:01:02;;;;;;;;;;;8.00;99.90;;;;;;4949734;28;19965;-66
2024/01/26 13:03:27;;;;;;;;;;;8.00;99.90;;;;;;4960970;28;20019;-66
2024/01/26 13:05:53;;;;;;;;;;;8.10;99.90;;;;;;4974939;28;20012;-66
2024/01/26 13:08:18;;;;;;;;;;;8.10;99.90;;;;;;4943237;28;19922;-66
2024/01/26 13:10:45;;;;;;;;;;;8.10;99.90;;;;;;4955542;28;19972;-66
2024/01/26 13:13:11;;;;;;;;;;;8.10;99.90;;;;;;4957637;28;19929;-66
2024/01/26 13:15:38;;;;;;;;;;;8.10;99.90;;;;;;4973736;28;20012;-66
2024/01/26 13:18:03;;;;;;;;;;;8.10;99.90;;;;;;4943444;28;19981;-66
2024/01/26 13:20:29;;;;;;;;;;;8.00;99.90;;;;;;4959441;28;19922;-66
2024/01/26 13:22:54;;;;;;;;;;;8.00;99.90;;;;;;4950078;28;19989;-66
2024/01/26 13:25:20;;;;;;;;;;;8.00;99.90;;;;;;4974836;28;20296;-66
2024/01/26 13:27:46;;;;;;;;;;;8.00;99.90;;;;;;4960442;28;19993;-66
2024/01/26 13:30:12;;;;;;;;;;;8.00;99.90;;;;;;4959048;28;19930;-66
2024/01/26 13:32:37;;;;;;;;;;;8.00;99.90;;;;;;4957120;28;19922;-66
2024/01/26 13:35:04;;;;;;;;;;;8.00;99.90;;;;;;4957229;28;20065;-66
2024/01/26 13:37:30;;;;;;;;;;;8.00;99.90;;;;;;4963778;28;19981;-66
2024/01/26 13:39:56;;;;;;;;;;;8.00;99.90;;;;;;4960051;28;19989;-66
2024/01/26 13:42:22;;;;;;;;;;;8.00;99.90;;;;;;4961684;28;20025;-69
2024/01/26 13:44:49;;;;;;;;;;;8.00;99.90;;;;;;4953588;28;20020;-69
2024/01/26 13:47:14;;;;;;;;;;;8.10;99.90;;;;;;4969666;28;20341;-68
2024/01/26 13:49:40;;;;;;;;;;;8.10;99.90;;;;;;4956331;28;20021;-69
2024/01/26 13:52:06;;;;;;;;;;;8.10;99.90;;;;;;4957606;28;19926;-69
2024/01/26 13:54:31;;;;;;;;;;;8.10;99.90;;;;;;4958432;28;19926;-69
2024/01/26 13:57:00;;;;;;;;;;;8.10;99.90;;;;;;4955649;28;20001;-69
2024/01/26 13:59:25;;;;;;;;;;;8.00;99.90;;;;;;4959058;28;19922;-69
2024/01/26 14:01:51;;;;;;;;;;;8.00;99.90;;;;;;4978066;28;19933;-69
2024/01/26 14:04:19;;;;;;;;;;;8.00;99.90;;;;;;4957480;28;21516;-69
2024/01/26 14:06:45;;;;;;;;;;;7.90;99.90;;;;;;4939674;28;19926;-69
2024/01/26 14:09:12;;;;;;;;;;;7.90;99.90;;;;;;4954519;28;20591;-69
2024/01/26 14:11:38;;;;;;;;;;;7.90;99.90;;;;;;4960957;28;19961;-69
2024/01/26 14:14:06;;;;;;;;;;;7.90;99.90;;;;;;4958525;28;20084;-69
2024/01/26 14:16:31;;;;;;;;;;;7.90;99.90;;;;;;4957648;28;20022;-68
2024/01/26 14:18:57;;;;;;;;;;;7.90;99.90;;;;;;4960820;28;19925;-69